Koyo Maru — JI3710 — position and weather

sailwx.info

Track history (hours):
 
Tides and Currents Weather Stations Pressure Air Temp Water Temp Dewpoint Dewpoint Depression Visibility Wind Speed Wind Dir Waves Ship Positions

Koyo Maru

Last reported at 2018-Feb-18 07:00 UTC. Time now 2018-Feb-18 07:22 UTC.
Position N 33°60' E 131°33'.

Length 125 m; draft 6 m.

Type: Cargo ship. MMSI: 431401953.

Date/timePositionNaut miles runAvg speedWind from/ knotsBaromVisibWave heightAir tempDewpointWater temp
2018-Feb-18 07:00N 33°60' E 131°33'1 1.0
2018-Feb-18 06:29N 34°00' E 131°34'0 0.0
2018-Feb-18 05:59N 34°00' E 131°34'0 0.0
2018-Feb-18 05:23N 34°00' E 131°34'0 0.0
2018-Feb-18 04:59N 34°00' E 131°34'0 0.0
2018-Feb-18 04:29N 34°00' E 131°34'0 0.0
2018-Feb-18 03:59N 34°00' E 131°34'0 0.0
2018-Feb-18 03:26N 34°00' E 131°34'0 0.0
2018-Feb-18 02:59N 34°00' E 131°34'0 0.0
2018-Feb-18 02:29N 34°00' E 131°34'0 0.0
2018-Feb-18 01:59N 34°00' E 131°34'0 0.0
2018-Feb-18 01:29N 34°00' E 131°34'0 0.0
2018-Feb-18 00:59N 34°00' E 131°34'0 0.0
2018-Feb-18 00:26N 34°00' E 131°34'0 0.0
2018-Feb-17 23:59N 34°00' E 131°34'1 1.4
2018-Feb-17 23:28N 33°60' E 131°33'714.5
2018-Feb-17 23:01N 33°56' E 131°39'1019.2
2018-Feb-17 22:30N 33°52' E 131°50'1019.0
2018-Feb-17 22:00N 33°47' E 132°00'917.2
2018-Feb-17 21:27N 33°49' E 132°11'818.0
2018-Feb-17 20:59N 33°50' E 132°21'918.4
2018-Feb-17 20:29N 33°53' E 132°32'919.3
2018-Feb-17 20:00N 33°58' E 132°42'7716.0
2018-Feb-17 15:12N 34°26' E 134°08'417.0
2018-Feb-17 14:57N 34°24' E 134°13'817.7
2018-Feb-17 14:30N 34°25' E 134°22'918.1
2018-Feb-17 14:00N 34°29' E 134°32'918.5
2018-Feb-17 13:30N 34°32' E 134°43'1019.4
2018-Feb-17 13:00N 34°36' E 134°54'918.5
2018-Feb-17 12:30N 34°36' E 135°05'918.0
2018-Feb-17 12:00N 34°37' E 135°16'815.6
2018-Feb-17 11:30N 34°36' E 135°25'1 1.6
2018-Feb-17 10:58N 34°35' E 135°26'0 0.0
2018-Feb-17 10:28N 34°35' E 135°26'0 0.0
2018-Feb-17 09:58N 34°35' E 135°26'0 0.0
2018-Feb-17 09:28N 34°35' E 135°26'0 0.0
2018-Feb-17 08:58N 34°35' E 135°26'0 0.0
2018-Feb-17 08:28N 34°35' E 135°26'0 0.0
2018-Feb-17 07:55N 34°35' E 135°26'0 0.0
2018-Feb-17 07:25N 34°35' E 135°26'0 0.0
2018-Feb-17 06:58N 34°35' E 135°26'0 0.0
2018-Feb-17 06:25N 34°35' E 135°26'0 0.0
2018-Feb-17 05:58N 34°35' E 135°26'0 0.0
2018-Feb-17 05:25N 34°35' E 135°26'0 0.0
2018-Feb-17 04:55N 34°35' E 135°26'0 0.0
2018-Feb-17 04:25N 34°35' E 135°26'0 0.0
2018-Feb-17 03:58N 34°35' E 135°26'0 0.0
2018-Feb-17 03:28N 34°35' E 135°26'0 0.0
2018-Feb-17 02:58N 34°35' E 135°26'0 0.0
2018-Feb-17 02:28N 34°35' E 135°26'0 0.0
2018-Feb-17 01:58N 34°35' E 135°26'0 0.0
2018-Feb-17 01:28N 34°35' E 135°26'0 0.0
2018-Feb-17 00:58N 34°35' E 135°26'0 0.0
2018-Feb-17 00:28N 34°35' E 135°26'0 0.0
2018-Feb-16 23:58N 34°35' E 135°26'0 0.0
2018-Feb-16 23:28N 34°35' E 135°26'0 0.0
2018-Feb-16 22:58N 34°35' E 135°26'0 0.0
2018-Feb-16 22:29N 34°35' E 135°26'2 3.3
2018-Feb-16 21:59N 34°36' E 135°24'715.3
2018-Feb-16 21:31N 34°34' E 135°16'918.0
2018-Feb-16 21:01N 34°35' E 135°05'816.2
2018-Feb-16 20:30N 34°36' E 134°55'918.0
2018-Feb-16 20:00N 34°32' E 134°45'917.4
2018-Feb-16 19:31N 34°27' E 134°36'917.6
2018-Feb-16 19:00N 34°23' E 134°27'917.4
2018-Feb-16 18:30N 34°23' E 134°16'7616.5
2018-Feb-16 13:52N 34°07' E 132°46'718.7
2018-Feb-16 13:30N 34°05' E 132°38'815.8
2018-Feb-16 13:00N 34°04' E 132°28'917.3
2018-Feb-16 12:30N 34°11' E 132°22'715.2
2018-Feb-16 12:00N 34°17' E 132°26'5 9.3
2018-Feb-16 11:30N 34°21' E 132°29'0 0.0
2018-Feb-16 10:58N 34°21' E 132°29'0 0.0
2018-Feb-16 10:28N 34°21' E 132°29'0 0.0
2018-Feb-16 09:58N 34°21' E 132°29'0 0.0
2018-Feb-16 09:28N 34°21' E 132°29'0 0.0
2018-Feb-16 08:58N 34°21' E 132°29'0 0.0
2018-Feb-16 08:30N 34°21' E 132°29'2 4.2
2018-Feb-16 08:00N 34°19' E 132°29'0 0.0
2018-Feb-16 07:30N 34°19' E 132°29'0 0.0
2018-Feb-16 07:00N 34°19' E 132°29'0 0.1
2018-Feb-16 06:30N 34°19' E 132°29'0 0.0
2018-Feb-16 05:57N 34°19' E 132°29'0 0.0
2018-Feb-16 05:30N 34°19' E 132°29'0 0.1
2018-Feb-16 04:54N 34°19' E 132°29'0 0.0
2018-Feb-16 04:30N 34°19' E 132°29'0 0.0
2018-Feb-16 04:00N 34°19' E 132°29'0 0.0
2018-Feb-16 03:30N 34°19' E 132°29'1 1.7
2018-Feb-16 03:01N 34°20' E 132°28'1 2.4
2018-Feb-16 02:27N 34°21' E 132°29'0 0.0
2018-Feb-16 02:00N 34°21' E 132°29'0 0.0
2018-Feb-16 01:30N 34°21' E 132°29'0 0.0
2018-Feb-16 01:00N 34°21' E 132°29'0 0.0
2018-Feb-16 00:30N 34°21' E 132°29'0 0.0
2018-Feb-16 00:00N 34°21' E 132°29'0 0.0
2018-Feb-15 23:27N 34°21' E 132°29'0 0.0
2018-Feb-15 23:00N 34°21' E 132°29'0 0.0
2018-Feb-15 22:30N 34°21' E 132°29'0 0.0
2018-Feb-15 22:00N 34°21' E 132°29'0 0.0
2018-Feb-15 21:30N 34°21' E 132°29'0 0.0
2018-Feb-15 21:00N 34°21' E 132°29'0 0.0
2018-Feb-15 20:30N 34°21' E 132°29'0 0.0
2018-Feb-15 20:00N 34°21' E 132°29'0 0.0
2018-Feb-15 19:30N 34°21' E 132°29'0 0.0
2018-Feb-15 19:00N 34°21' E 132°29'0 0.0
2018-Feb-15 18:30N 34°21' E 132°29'0 0.0
2018-Feb-15 18:00N 34°21' E 132°29'0 0.0
2018-Feb-15 17:30N 34°21' E 132°29'0 0.0
2018-Feb-15 17:00N 34°21' E 132°29'0 0.0
2018-Feb-15 16:30N 34°21' E 132°29'0 0.0
2018-Feb-15 16:00N 34°21' E 132°29'0 0.0
2018-Feb-15 15:30N 34°21' E 132°29'0 0.0
2018-Feb-15 15:00N 34°21' E 132°29'0 0.0
2018-Feb-15 14:30N 34°21' E 132°29'0 0.0
2018-Feb-15 14:00N 34°21' E 132°29'0 0.0
2018-Feb-15 13:30N 34°21' E 132°29'0 0.0
2018-Feb-15 13:00N 34°21' E 132°29'0 0.0
2018-Feb-15 12:30N 34°21' E 132°29'0 0.0
2018-Feb-15 12:00N 34°21' E 132°29'0 0.0
2018-Feb-15 11:30N 34°21' E 132°29'0 0.0
2018-Feb-15 11:00N 34°21' E 132°29'0 0.0
2018-Feb-15 10:30N 34°21' E 132°29'0 0.0
2018-Feb-15 10:00N 34°21' E 132°29'0 0.0
2018-Feb-15 09:30N 34°21' E 132°29'1 1.0
2018-Feb-15 08:59N 34°21' E 132°28'4 7.5
2018-Feb-15 08:30N 34°19' E 132°25'612.7
2018-Feb-15 08:00N 34°13' E 132°21'815.5
2018-Feb-15 07:30N 34°06' E 132°25'916.2
2018-Feb-15 06:59N 34°03' E 132°35'8110.5
2018-Feb-14 23:18N 34°26' E 134°08'619.4
2018-Feb-14 22:59N 34°24' E 134°15'918.6
2018-Feb-14 22:31N 34°20' E 134°25'918.5
2018-Feb-14 22:00N 34°17' E 134°35'1119.3
2018-Feb-14 21:26N 34°09' E 134°45'817.9
2018-Feb-14 21:00N 34°03' E 134°51'918.2
2018-Feb-14 20:30N 33°56' E 134°58'8913.7
2018-Feb-14 14:01N 34°05' E 136°44'116.1
2018-Feb-14 13:56N 34°06' E 136°45'2416.8
2018-Feb-14 12:31N 34°26' E 137°01'716.7
2018-Feb-14 12:07N 34°33' E 137°01'212.0
2018-Feb-14 11:58N 34°34' E 136°59'818.1
2018-Feb-14 11:30N 34°39' E 136°51'917.8
2018-Feb-14 11:00N 34°47' E 136°46'917.8
2018-Feb-14 10:30N 34°56' E 136°43'4 8.9
2018-Feb-14 10:01N 34°59' E 136°40'0 0.0
2018-Feb-14 09:29N 34°59' E 136°40'0 0.0
2018-Feb-14 08:59N 34°59' E 136°40'0 0.0
2018-Feb-14 08:29N 34°59' E 136°40'0 0.0
2018-Feb-14 07:59N 34°59' E 136°40'0 0.0
2018-Feb-14 07:29N 34°59' E 136°40'1 2.4
2018-Feb-14 07:00N 34°59' E 136°41'816.9
2018-Feb-14 06:30N 34°51' E 136°45'918.2
2018-Feb-14 06:00N 34°44' E 136°50'714.3
2018-Feb-14 05:30N 34°43' E 136°59'816.6
2018-Feb-14 05:00N 34°51' E 136°57'4 7.2
2018-Feb-14 04:29N 34°54' E 136°59'0 0.0
2018-Feb-14 03:59N 34°54' E 136°59'0 0.0
2018-Feb-14 03:29N 34°54' E 136°59'0 0.0
2018-Feb-14 02:47N 34°54' E 136°59'0 0.0
2018-Feb-14 02:29N 34°54' E 136°59'0 0.0
2018-Feb-14 01:59N 34°54' E 136°59'0 0.0
2018-Feb-14 01:29N 34°54' E 136°59'0 0.0
2018-Feb-14 00:59N 34°54' E 136°59'0 0.0
2018-Feb-14 00:23N 34°54' E 136°59'0 0.0
2018-Feb-13 23:59N 34°54' E 136°59'0 0.0
2018-Feb-13 23:29N 34°54' E 136°59'1 1.1
2018-Feb-13 23:01N 34°54' E 136°58'611.9
2018-Feb-13 22:30N 34°48' E 136°57'917.0
2018-Feb-13 22:00N 34°39' E 136°59'3215.1
2018-Feb-13 19:53N 34°08' E 136°48'8614.7
2018-Feb-13 13:59N 33°45' E 135°08'918.8
2018-Feb-13 13:30N 33°52' E 135°01'918.3
2018-Feb-13 13:00N 34°01' E 134°59'918.6
2018-Feb-13 12:30N 34°10' E 134°59'918.6
2018-Feb-13 12:00N 34°19' E 134°59'917.2
2018-Feb-13 11:30N 34°26' E 135°06'918.1
2018-Feb-13 11:00N 34°31' E 135°14'917.2
2018-Feb-13 10:31N 34°36' E 135°23'3 5.4
2018-Feb-13 10:00N 34°35' E 135°26'0 0.0
2018-Feb-13 09:30N 34°35' E 135°26'0 0.0
2018-Feb-13 09:00N 34°35' E 135°26'0 0.0
2018-Feb-13 08:30N 34°35' E 135°26'0 0.0
2018-Feb-13 08:00N 34°35' E 135°26'0 0.0
2018-Feb-13 07:30N 34°35' E 135°26'0 0.0
2018-Feb-13 07:00N 34°35' E 135°26'0 0.0
2018-Feb-13 06:30N 34°35' E 135°26'0 0.0
2018-Feb-13 06:00N 34°35' E 135°26'0 0.0
2018-Feb-13 05:30N 34°35' E 135°26'0 0.0
2018-Feb-13 05:00N 34°35' E 135°26'0 0.0
2018-Feb-13 04:30N 34°35' E 135°26'0 0.0
2018-Feb-13 04:00N 34°35' E 135°26'0 0.0
2018-Feb-13 03:30N 34°35' E 135°26'0 0.0
2018-Feb-13 03:00N 34°35' E 135°26'0 0.0
2018-Feb-13 02:30N 34°35' E 135°26'0 0.0
2018-Feb-13 02:00N 34°35' E 135°26'0 0.0
2018-Feb-13 01:30N 34°35' E 135°26'0 0.0
2018-Feb-13 01:00N 34°35' E 135°26'0 0.0
2018-Feb-13 00:27N 34°35' E 135°26'0 0.0
2018-Feb-13 00:00N 34°35' E 135°26'0 0.0
2018-Feb-12 23:30N 34°35' E 135°26'0 0.0
2018-Feb-12 22:57N 34°35' E 135°26'0 0.0
2018-Feb-12 22:30N 34°35' E 135°26'1 2.8
2018-Feb-12 22:00N 34°36' E 135°24'612.3
2018-Feb-12 21:31N 34°34' E 135°17'713.9
2018-Feb-12 21:00N 34°32' E 135°09'816.0
2018-Feb-12 20:31N 34°36' E 135°02'714.0
2018-Feb-12 20:00N 34°35' E 134°53'816.4
2018-Feb-12 19:30N 34°31' E 134°45'815.2
2018-Feb-12 19:00N 34°28' E 134°36'612.3
2018-Feb-12 18:30N 34°22' E 134°32'2 4.5
2018-Feb-12 18:00N 34°20' E 134°32'612.5
2018-Feb-12 17:31N 34°20' E 134°25'916.9
2018-Feb-12 17:00N 34°23' E 134°15'7913.9
2018-Feb-12 11:16N 34°05' E 132°42'518.5
2018-Feb-12 11:00N 34°03' E 132°36'815.5
2018-Feb-12 10:29N 34°05' E 132°27'816.9
2018-Feb-12 10:00N 34°12' E 132°22'816.5
2018-Feb-12 09:30N 34°20' E 132°26'3 6.1
2018-Feb-12 09:00N 34°21' E 132°29'0 0.0
2018-Feb-12 08:28N 34°21' E 132°29'0 0.0
2018-Feb-12 07:58N 34°21' E 132°29'0 0.4
2018-Feb-12 07:30N 34°21' E 132°29'2 3.2
2018-Feb-12 07:00N 34°20' E 132°28'0 0.3
2018-Feb-12 06:29N 34°20' E 132°28'0 0.0
2018-Feb-12 05:59N 34°20' E 132°28'0 0.1
2018-Feb-12 05:29N 34°20' E 132°28'0 0.0
2018-Feb-12 04:59N 34°20' E 132°28'0 0.1
2018-Feb-12 04:29N 34°20' E 132°28'0 0.0
2018-Feb-12 03:59N 34°20' E 132°28'0 0.0
2018-Feb-12 03:29N 34°20' E 132°28'2 3.4
2018-Feb-12 03:01N 34°21' E 132°29'0 0.2
2018-Feb-12 02:30N 34°21' E 132°29'0 0.0
2018-Feb-12 02:00N 34°21' E 132°29'0 0.0
2018-Feb-12 01:30N 34°21' E 132°29'0 0.0
2018-Feb-12 01:00N 34°21' E 132°29'0 0.0
2018-Feb-12 00:30N 34°21' E 132°29'0 0.0
2018-Feb-12 00:00N 34°21' E 132°29'0 0.0
2018-Feb-11 23:27N 34°21' E 132°29'0 0.1
2018-Feb-11 23:00N 34°21' E 132°29'2 3.3
2018-Feb-11 22:28N 34°20' E 132°28'0 0.0
2018-Feb-11 21:58N 34°20' E 132°28'0 0.0
2018-Feb-11 21:28N 34°20' E 132°28'0 0.0
2018-Feb-11 20:55N 34°20' E 132°28'0 0.1
2018-Feb-11 20:28N 34°20' E 132°28'0 0.1
2018-Feb-11 19:52N 34°20' E 132°28'0 0.1
2018-Feb-11 19:28N 34°20' E 132°28'0 0.0
2018-Feb-11 18:58N 34°20' E 132°28'0 0.0
2018-Feb-11 18:28N 34°20' E 132°28'0 0.0
2018-Feb-11 17:58N 34°20' E 132°28'0 0.0
2018-Feb-11 17:28N 34°20' E 132°28'0 0.0
2018-Feb-11 16:58N 34°20' E 132°28'0 0.0
2018-Feb-11 16:28N 34°20' E 132°28'0 0.0
2018-Feb-11 15:58N 34°20' E 132°28'0 0.0
2018-Feb-11 15:28N 34°20' E 132°28'0 0.0
2018-Feb-11 14:58N 34°20' E 132°28'0 0.0
2018-Feb-11 14:25N 34°20' E 132°28'0 0.0
2018-Feb-11 13:58N 34°20' E 132°28'0 0.0
2018-Feb-11 13:28N 34°20' E 132°28'0 0.0
2018-Feb-11 12:55N 34°20' E 132°28'0 0.0
2018-Feb-11 12:28N 34°20' E 132°28'0 0.0
2018-Feb-11 11:55N 34°20' E 132°28'1 3.0
2018-Feb-11 11:31N 34°20' E 132°27'816.6
2018-Feb-11 11:01N 34°14' E 132°20'917.9
2018-Feb-11 10:30N 34°05' E 132°17'917.2
2018-Feb-11 09:57N 33°57' E 132°10'816.3
2018-Feb-11 09:29N 33°50' E 132°09'816.1
2018-Feb-11 09:00N 33°47' E 132°00'1018.1
2018-Feb-11 08:26N 33°52' E 131°49'818.0
2018-Feb-11 07:59N 33°55' E 131°41'815.9
2018-Feb-11 07:30N 33°60' E 131°33'1 2.2
2018-Feb-11 07:01N 34°00' E 131°34'0 0.0
2018-Feb-11 00:29N 34°00' E 131°34'2 4.6
2018-Feb-11 00:01N 33°58' E 131°34'917.1
2018-Feb-10 23:30N 33°54' E 131°43'917.3
2018-Feb-10 23:00N 33°51' E 131°53'817.1
2018-Feb-10 22:30N 33°47' E 132°01'1117.1
2018-Feb-10 21:51N 33°50' E 132°14'1117.4
2018-Feb-10 21:14N 33°52' E 132°27'417.4
2018-Feb-10 20:59N 33°53' E 132°32'917.1
2018-Feb-10 20:28N 33°57' E 132°41'7815.3
2018-Feb-10 15:23N 34°26' E 134°09'616.4
2018-Feb-10 15:00N 34°24' E 134°16'917.4
2018-Feb-10 14:30N 34°26' E 134°26'917.7
2018-Feb-10 14:01N 34°30' E 134°36'917.3
2018-Feb-10 13:30N 34°33' E 134°45'816.7
2018-Feb-10 13:00N 34°36' E 134°55'815.5
2018-Feb-10 12:30N 34°36' E 135°04'918.4
2018-Feb-10 12:00N 34°37' E 135°15'815.8
2018-Feb-10 11:30N 34°36' E 135°25'1 1.8
2018-Feb-10 10:59N 34°35' E 135°26'0 0.0
2018-Feb-10 10:29N 34°35' E 135°26'0 0.0
2018-Feb-10 09:59N 34°35' E 135°26'0 0.0
2018-Feb-10 09:29N 34°35' E 135°26'0 0.0
2018-Feb-10 08:59N 34°35' E 135°26'0 0.0
2018-Feb-10 08:29N 34°35' E 135°26'0 0.0
2018-Feb-10 07:59N 34°35' E 135°26'0 0.0
2018-Feb-10 07:29N 34°35' E 135°26'0 0.0
2018-Feb-10 06:56N 34°35' E 135°26'0 0.0
2018-Feb-10 06:29N 34°35' E 135°26'0 0.0
2018-Feb-10 05:59N 34°35' E 135°26'0 0.0
2018-Feb-10 05:29N 34°35' E 135°26'0 0.0
2018-Feb-10 04:59N 34°35' E 135°26'0 0.0
2018-Feb-10 04:29N 34°35' E 135°26'0 0.0
2018-Feb-10 03:59N 34°35' E 135°26'0 0.0
2018-Feb-10 03:26N 34°35' E 135°26'0 0.0
2018-Feb-10 02:59N 34°35' E 135°26'0 0.0
2018-Feb-10 02:23N 34°35' E 135°26'0 0.0
2018-Feb-10 01:59N 34°35' E 135°26'0 0.0
2018-Feb-10 01:29N 34°35' E 135°26'0 0.0
2018-Feb-10 00:59N 34°35' E 135°26'0 0.0
2018-Feb-10 00:25N 34°35' E 135°26'0 0.0
2018-Feb-09 23:59N 34°35' E 135°26'0 0.0
2018-Feb-09 23:23N 34°35' E 135°26'0 0.0
2018-Feb-09 22:59N 34°35' E 135°26'0 0.0
2018-Feb-09 22:44N 34°35' E 135°26'3 4.0
2018-Feb-09 22:01N 34°36' E 135°23'815.7
2018-Feb-09 21:31N 34°35' E 135°13'816.1
2018-Feb-09 21:01N 34°36' E 135°03'713.7
2018-Feb-09 20:31N 34°36' E 134°55'1616.4
2018-Feb-09 19:30N 34°29' E 134°37'917.2
2018-Feb-09 19:00N 34°26' E 134°27'10212.8
2018-Feb-09 11:00N 34°17' E 132°24'611.6
2018-Feb-09 10:30N 34°21' E 132°29'0 0.0
2018-Feb-09 01:30N 34°21' E 132°29'2 4.7
2018-Feb-09 01:00N 34°19' E 132°29'  
Track history (hours):
 
Tides and Currents Weather Stations Pressure Air Temp Water Temp Dewpoint Dewpoint Depression Visibility Wind Speed Wind Dir Waves Ship Positions

Koyo Maru

Last reported at 2018-Feb-18 07:00 UTC. Time now 2018-Feb-18 07:22 UTC.
Position N 33°60' E 131°33'.

Length 125 m; draft 6 m.

Type: Cargo ship. MMSI: 431401953.

Date/timePositionNaut miles runAvg speedWind from/ knotsBaromVisibWave heightAir tempDewpointWater temp
2018-Feb-18 07:00N 33°60' E 131°33'1 1.0
2018-Feb-18 06:29N 34°00' E 131°34'0 0.0
2018-Feb-18 05:59N 34°00' E 131°34'0 0.0
2018-Feb-18 05:23N 34°00' E 131°34'0 0.0
2018-Feb-18 04:59N 34°00' E 131°34'0 0.0
2018-Feb-18 04:29N 34°00' E 131°34'0 0.0
2018-Feb-18 03:59N 34°00' E 131°34'0 0.0
2018-Feb-18 03:26N 34°00' E 131°34'0 0.0
2018-Feb-18 02:59N 34°00' E 131°34'0 0.0
2018-Feb-18 02:29N 34°00' E 131°34'0 0.0
2018-Feb-18 01:59N 34°00' E 131°34'0 0.0
2018-Feb-18 01:29N 34°00' E 131°34'0 0.0
2018-Feb-18 00:59N 34°00' E 131°34'0 0.0
2018-Feb-18 00:26N 34°00' E 131°34'0 0.0
2018-Feb-17 23:59N 34°00' E 131°34'1 1.4
2018-Feb-17 23:28N 33°60' E 131°33'714.5
2018-Feb-17 23:01N 33°56' E 131°39'1019.2
2018-Feb-17 22:30N 33°52' E 131°50'1019.0
2018-Feb-17 22:00N 33°47' E 132°00'917.2
2018-Feb-17 21:27N 33°49' E 132°11'818.0
2018-Feb-17 20:59N 33°50' E 132°21'918.4
2018-Feb-17 20:29N 33°53' E 132°32'919.3
2018-Feb-17 20:00N 33°58' E 132°42'7716.0
2018-Feb-17 15:12N 34°26' E 134°08'417.0
2018-Feb-17 14:57N 34°24' E 134°13'817.7
2018-Feb-17 14:30N 34°25' E 134°22'918.1
2018-Feb-17 14:00N 34°29' E 134°32'918.5
2018-Feb-17 13:30N 34°32' E 134°43'1019.4
2018-Feb-17 13:00N 34°36' E 134°54'918.5
2018-Feb-17 12:30N 34°36' E 135°05'918.0
2018-Feb-17 12:00N 34°37' E 135°16'815.6
2018-Feb-17 11:30N 34°36' E 135°25'1 1.6
2018-Feb-17 10:58N 34°35' E 135°26'0 0.0
2018-Feb-17 10:28N 34°35' E 135°26'0 0.0
2018-Feb-17 09:58N 34°35' E 135°26'0 0.0
2018-Feb-17 09:28N 34°35' E 135°26'0 0.0
2018-Feb-17 08:58N 34°35' E 135°26'0 0.0
2018-Feb-17 08:28N 34°35' E 135°26'0 0.0
2018-Feb-17 07:55N 34°35' E 135°26'0 0.0
2018-Feb-17 07:25N 34°35' E 135°26'0 0.0
2018-Feb-17 06:58N 34°35' E 135°26'0 0.0
2018-Feb-17 06:25N 34°35' E 135°26'0 0.0
2018-Feb-17 05:58N 34°35' E 135°26'0 0.0
2018-Feb-17 05:25N 34°35' E 135°26'0 0.0
2018-Feb-17 04:55N 34°35' E 135°26'0 0.0
2018-Feb-17 04:25N 34°35' E 135°26'0 0.0
2018-Feb-17 03:58N 34°35' E 135°26'0 0.0
2018-Feb-17 03:28N 34°35' E 135°26'0 0.0
2018-Feb-17 02:58N 34°35' E 135°26'0 0.0
2018-Feb-17 02:28N 34°35' E 135°26'0 0.0
2018-Feb-17 01:58N 34°35' E 135°26'0 0.0
2018-Feb-17 01:28N 34°35' E 135°26'0 0.0
2018-Feb-17 00:58N 34°35' E 135°26'0 0.0
2018-Feb-17 00:28N 34°35' E 135°26'0 0.0
2018-Feb-16 23:58N 34°35' E 135°26'0 0.0
2018-Feb-16 23:28N 34°35' E 135°26'0 0.0
2018-Feb-16 22:58N 34°35' E 135°26'0 0.0
2018-Feb-16 22:29N 34°35' E 135°26'2 3.3
2018-Feb-16 21:59N 34°36' E 135°24'715.3
2018-Feb-16 21:31N 34°34' E 135°16'918.0
2018-Feb-16 21:01N 34°35' E 135°05'816.2
2018-Feb-16 20:30N 34°36' E 134°55'918.0
2018-Feb-16 20:00N 34°32' E 134°45'917.4
2018-Feb-16 19:31N 34°27' E 134°36'917.6
2018-Feb-16 19:00N 34°23' E 134°27'917.4
2018-Feb-16 18:30N 34°23' E 134°16'7616.5
2018-Feb-16 13:52N 34°07' E 132°46'718.7
2018-Feb-16 13:30N 34°05' E 132°38'815.8
2018-Feb-16 13:00N 34°04' E 132°28'917.3
2018-Feb-16 12:30N 34°11' E 132°22'715.2
2018-Feb-16 12:00N 34°17' E 132°26'5 9.3
2018-Feb-16 11:30N 34°21' E 132°29'0 0.0
2018-Feb-16 10:58N 34°21' E 132°29'0 0.0
2018-Feb-16 10:28N 34°21' E 132°29'0 0.0
2018-Feb-16 09:58N 34°21' E 132°29'0 0.0
2018-Feb-16 09:28N 34°21' E 132°29'0 0.0
2018-Feb-16 08:58N 34°21' E 132°29'0 0.0
2018-Feb-16 08:30N 34°21' E 132°29'2 4.2
2018-Feb-16 08:00N 34°19' E 132°29'0 0.0
2018-Feb-16 07:30N 34°19' E 132°29'0 0.0
2018-Feb-16 07:00N 34°19' E 132°29'0 0.1
2018-Feb-16 06:30N 34°19' E 132°29'0 0.0
2018-Feb-16 05:57N 34°19' E 132°29'0 0.0
2018-Feb-16 05:30N 34°19' E 132°29'0 0.1
2018-Feb-16 04:54N 34°19' E 132°29'0 0.0
2018-Feb-16 04:30N 34°19' E 132°29'0 0.0
2018-Feb-16 04:00N 34°19' E 132°29'0 0.0
2018-Feb-16 03:30N 34°19' E 132°29'1 1.7
2018-Feb-16 03:01N 34°20' E 132°28'1 2.4
2018-Feb-16 02:27N 34°21' E 132°29'0 0.0
2018-Feb-16 02:00N 34°21' E 132°29'0 0.0
2018-Feb-16 01:30N 34°21' E 132°29'0 0.0
2018-Feb-16 01:00N 34°21' E 132°29'0 0.0
2018-Feb-16 00:30N 34°21' E 132°29'0 0.0
2018-Feb-16 00:00N 34°21' E 132°29'0 0.0
2018-Feb-15 23:27N 34°21' E 132°29'0 0.0
2018-Feb-15 23:00N 34°21' E 132°29'0 0.0
2018-Feb-15 22:30N 34°21' E 132°29'0 0.0
2018-Feb-15 22:00N 34°21' E 132°29'0 0.0
2018-Feb-15 21:30N 34°21' E 132°29'0 0.0
2018-Feb-15 21:00N 34°21' E 132°29'0 0.0
2018-Feb-15 20:30N 34°21' E 132°29'0 0.0
2018-Feb-15 20:00N 34°21' E 132°29'0 0.0
2018-Feb-15 19:30N 34°21' E 132°29'0 0.0
2018-Feb-15 19:00N 34°21' E 132°29'0 0.0
2018-Feb-15 18:30N 34°21' E 132°29'0 0.0
2018-Feb-15 18:00N 34°21' E 132°29'0 0.0
2018-Feb-15 17:30N 34°21' E 132°29'0 0.0
2018-Feb-15 17:00N 34°21' E 132°29'0 0.0
2018-Feb-15 16:30N 34°21' E 132°29'0 0.0
2018-Feb-15 16:00N 34°21' E 132°29'0 0.0
2018-Feb-15 15:30N 34°21' E 132°29'0 0.0
2018-Feb-15 15:00N 34°21' E 132°29'0 0.0
2018-Feb-15 14:30N 34°21' E 132°29'0 0.0
2018-Feb-15 14:00N 34°21' E 132°29'0 0.0
2018-Feb-15 13:30N 34°21' E 132°29'0 0.0
2018-Feb-15 13:00N 34°21' E 132°29'0 0.0
2018-Feb-15 12:30N 34°21' E 132°29'0 0.0
2018-Feb-15 12:00N 34°21' E 132°29'0 0.0
2018-Feb-15 11:30N 34°21' E 132°29'0 0.0
2018-Feb-15 11:00N 34°21' E 132°29'0 0.0
2018-Feb-15 10:30N 34°21' E 132°29'0 0.0
2018-Feb-15 10:00N 34°21' E 132°29'0 0.0
2018-Feb-15 09:30N 34°21' E 132°29'1 1.0
2018-Feb-15 08:59N 34°21' E 132°28'4 7.5
2018-Feb-15 08:30N 34°19' E 132°25'612.7
2018-Feb-15 08:00N 34°13' E 132°21'815.5
2018-Feb-15 07:30N 34°06' E 132°25'916.2
2018-Feb-15 06:59N 34°03' E 132°35'8110.5
2018-Feb-14 23:18N 34°26' E 134°08'619.4
2018-Feb-14 22:59N 34°24' E 134°15'918.6
2018-Feb-14 22:31N 34°20' E 134°25'918.5
2018-Feb-14 22:00N 34°17' E 134°35'1119.3
2018-Feb-14 21:26N 34°09' E 134°45'817.9
2018-Feb-14 21:00N 34°03' E 134°51'918.2
2018-Feb-14 20:30N 33°56' E 134°58'8913.7
2018-Feb-14 14:01N 34°05' E 136°44'116.1
2018-Feb-14 13:56N 34°06' E 136°45'2416.8
2018-Feb-14 12:31N 34°26' E 137°01'716.7
2018-Feb-14 12:07N 34°33' E 137°01'212.0
2018-Feb-14 11:58N 34°34' E 136°59'818.1
2018-Feb-14 11:30N 34°39' E 136°51'917.8
2018-Feb-14 11:00N 34°47' E 136°46'917.8
2018-Feb-14 10:30N 34°56' E 136°43'4 8.9
2018-Feb-14 10:01N 34°59' E 136°40'0 0.0
2018-Feb-14 09:29N 34°59' E 136°40'0 0.0
2018-Feb-14 08:59N 34°59' E 136°40'0 0.0
2018-Feb-14 08:29N 34°59' E 136°40'0 0.0
2018-Feb-14 07:59N 34°59' E 136°40'0 0.0
2018-Feb-14 07:29N 34°59' E 136°40'1 2.4
2018-Feb-14 07:00N 34°59' E 136°41'816.9
2018-Feb-14 06:30N 34°51' E 136°45'918.2
2018-Feb-14 06:00N 34°44' E 136°50'714.3
2018-Feb-14 05:30N 34°43' E 136°59'816.6
2018-Feb-14 05:00N 34°51' E 136°57'4 7.2
2018-Feb-14 04:29N 34°54' E 136°59'0 0.0
2018-Feb-14 03:59N 34°54' E 136°59'0 0.0
2018-Feb-14 03:29N 34°54' E 136°59'0 0.0
2018-Feb-14 02:47N 34°54' E 136°59'0 0.0
2018-Feb-14 02:29N 34°54' E 136°59'0 0.0
2018-Feb-14 01:59N 34°54' E 136°59'0 0.0
2018-Feb-14 01:29N 34°54' E 136°59'0 0.0
2018-Feb-14 00:59N 34°54' E 136°59'0 0.0
2018-Feb-14 00:23N 34°54' E 136°59'0 0.0
2018-Feb-13 23:59N 34°54' E 136°59'0 0.0
2018-Feb-13 23:29N 34°54' E 136°59'1 1.1
2018-Feb-13 23:01N 34°54' E 136°58'611.9
2018-Feb-13 22:30N 34°48' E 136°57'917.0
2018-Feb-13 22:00N 34°39' E 136°59'3215.1
2018-Feb-13 19:53N 34°08' E 136°48'8614.7
2018-Feb-13 13:59N 33°45' E 135°08'918.8
2018-Feb-13 13:30N 33°52' E 135°01'918.3
2018-Feb-13 13:00N 34°01' E 134°59'918.6
2018-Feb-13 12:30N 34°10' E 134°59'918.6
2018-Feb-13 12:00N 34°19' E 134°59'917.2
2018-Feb-13 11:30N 34°26' E 135°06'918.1
2018-Feb-13 11:00N 34°31' E 135°14'917.2
2018-Feb-13 10:31N 34°36' E 135°23'3 5.4
2018-Feb-13 10:00N 34°35' E 135°26'0 0.0
2018-Feb-13 09:30N 34°35' E 135°26'0 0.0
2018-Feb-13 09:00N 34°35' E 135°26'0 0.0
2018-Feb-13 08:30N 34°35' E 135°26'0 0.0
2018-Feb-13 08:00N 34°35' E 135°26'0 0.0
2018-Feb-13 07:30N 34°35' E 135°26'0 0.0
2018-Feb-13 07:00N 34°35' E 135°26'0 0.0
2018-Feb-13 06:30N 34°35' E 135°26'0 0.0
2018-Feb-13 06:00N 34°35' E 135°26'0 0.0
2018-Feb-13 05:30N 34°35' E 135°26'0 0.0
2018-Feb-13 05:00N 34°35' E 135°26'0 0.0
2018-Feb-13 04:30N 34°35' E 135°26'0 0.0
2018-Feb-13 04:00N 34°35' E 135°26'0 0.0
2018-Feb-13 03:30N 34°35' E 135°26'0 0.0
2018-Feb-13 03:00N 34°35' E 135°26'0 0.0
2018-Feb-13 02:30N 34°35' E 135°26'0 0.0
2018-Feb-13 02:00N 34°35' E 135°26'0 0.0
2018-Feb-13 01:30N 34°35' E 135°26'0 0.0
2018-Feb-13 01:00N 34°35' E 135°26'0 0.0
2018-Feb-13 00:27N 34°35' E 135°26'0 0.0
2018-Feb-13 00:00N 34°35' E 135°26'0 0.0
2018-Feb-12 23:30N 34°35' E 135°26'0 0.0
2018-Feb-12 22:57N 34°35' E 135°26'0 0.0
2018-Feb-12 22:30N 34°35' E 135°26'1 2.8
2018-Feb-12 22:00N 34°36' E 135°24'612.3
2018-Feb-12 21:31N 34°34' E 135°17'713.9
2018-Feb-12 21:00N 34°32' E 135°09'816.0
2018-Feb-12 20:31N 34°36' E 135°02'714.0
2018-Feb-12 20:00N 34°35' E 134°53'816.4
2018-Feb-12 19:30N 34°31' E 134°45'815.2
2018-Feb-12 19:00N 34°28' E 134°36'612.3
2018-Feb-12 18:30N 34°22' E 134°32'2 4.5
2018-Feb-12 18:00N 34°20' E 134°32'612.5
2018-Feb-12 17:31N 34°20' E 134°25'916.9
2018-Feb-12 17:00N 34°23' E 134°15'7913.9
2018-Feb-12 11:16N 34°05' E 132°42'518.5
2018-Feb-12 11:00N 34°03' E 132°36'815.5
2018-Feb-12 10:29N 34°05' E 132°27'816.9
2018-Feb-12 10:00N 34°12' E 132°22'816.5
2018-Feb-12 09:30N 34°20' E 132°26'3 6.1
2018-Feb-12 09:00N 34°21' E 132°29'0 0.0
2018-Feb-12 08:28N 34°21' E 132°29'0 0.0
2018-Feb-12 07:58N 34°21' E 132°29'0 0.4
2018-Feb-12 07:30N 34°21' E 132°29'2 3.2
2018-Feb-12 07:00N 34°20' E 132°28'0 0.3
2018-Feb-12 06:29N 34°20' E 132°28'0 0.0
2018-Feb-12 05:59N 34°20' E 132°28'0 0.1
2018-Feb-12 05:29N 34°20' E 132°28'0 0.0
2018-Feb-12 04:59N 34°20' E 132°28'0 0.1
2018-Feb-12 04:29N 34°20' E 132°28'0 0.0
2018-Feb-12 03:59N 34°20' E 132°28'0 0.0
2018-Feb-12 03:29N 34°20' E 132°28'2 3.4
2018-Feb-12 03:01N 34°21' E 132°29'0 0.2
2018-Feb-12 02:30N 34°21' E 132°29'0 0.0
2018-Feb-12 02:00N 34°21' E 132°29'0 0.0
2018-Feb-12 01:30N 34°21' E 132°29'0 0.0
2018-Feb-12 01:00N 34°21' E 132°29'0 0.0
2018-Feb-12 00:30N 34°21' E 132°29'0 0.0
2018-Feb-12 00:00N 34°21' E 132°29'0 0.0
2018-Feb-11 23:27N 34°21' E 132°29'0 0.1
2018-Feb-11 23:00N 34°21' E 132°29'2 3.3
2018-Feb-11 22:28N 34°20' E 132°28'0 0.0
2018-Feb-11 21:58N 34°20' E 132°28'0 0.0
2018-Feb-11 21:28N 34°20' E 132°28'0 0.0
2018-Feb-11 20:55N 34°20' E 132°28'0 0.1
2018-Feb-11 20:28N 34°20' E 132°28'0 0.1
2018-Feb-11 19:52N 34°20' E 132°28'0 0.1
2018-Feb-11 19:28N 34°20' E 132°28'0 0.0
2018-Feb-11 18:58N 34°20' E 132°28'0 0.0
2018-Feb-11 18:28N 34°20' E 132°28'0 0.0
2018-Feb-11 17:58N 34°20' E 132°28'0 0.0
2018-Feb-11 17:28N 34°20' E 132°28'0 0.0
2018-Feb-11 16:58N 34°20' E 132°28'0 0.0
2018-Feb-11 16:28N 34°20' E 132°28'0 0.0
2018-Feb-11 15:58N 34°20' E 132°28'0 0.0
2018-Feb-11 15:28N 34°20' E 132°28'0 0.0
2018-Feb-11 14:58N 34°20' E 132°28'0 0.0
2018-Feb-11 14:25N 34°20' E 132°28'0 0.0
2018-Feb-11 13:58N 34°20' E 132°28'0 0.0
2018-Feb-11 13:28N 34°20' E 132°28'0 0.0
2018-Feb-11 12:55N 34°20' E 132°28'0 0.0
2018-Feb-11 12:28N 34°20' E 132°28'0 0.0
2018-Feb-11 11:55N 34°20' E 132°28'1 3.0
2018-Feb-11 11:31N 34°20' E 132°27'816.6
2018-Feb-11 11:01N 34°14' E 132°20'917.9
2018-Feb-11 10:30N 34°05' E 132°17'917.2
2018-Feb-11 09:57N 33°57' E 132°10'816.3
2018-Feb-11 09:29N 33°50' E 132°09'816.1
2018-Feb-11 09:00N 33°47' E 132°00'1018.1
2018-Feb-11 08:26N 33°52' E 131°49'818.0
2018-Feb-11 07:59N 33°55' E 131°41'815.9
2018-Feb-11 07:30N 33°60' E 131°33'1 2.2
2018-Feb-11 07:01N 34°00' E 131°34'0 0.0
2018-Feb-11 00:29N 34°00' E 131°34'2 4.6
2018-Feb-11 00:01N 33°58' E 131°34'917.1
2018-Feb-10 23:30N 33°54' E 131°43'917.3
2018-Feb-10 23:00N 33°51' E 131°53'817.1
2018-Feb-10 22:30N 33°47' E 132°01'1117.1
2018-Feb-10 21:51N 33°50' E 132°14'1117.4
2018-Feb-10 21:14N 33°52' E 132°27'417.4
2018-Feb-10 20:59N 33°53' E 132°32'917.1
2018-Feb-10 20:28N 33°57' E 132°41'7815.3
2018-Feb-10 15:23N 34°26' E 134°09'616.4
2018-Feb-10 15:00N 34°24' E 134°16'917.4
2018-Feb-10 14:30N 34°26' E 134°26'917.7
2018-Feb-10 14:01N 34°30' E 134°36'917.3
2018-Feb-10 13:30N 34°33' E 134°45'816.7
2018-Feb-10 13:00N 34°36' E 134°55'815.5
2018-Feb-10 12:30N 34°36' E 135°04'918.4
2018-Feb-10 12:00N 34°37' E 135°15'815.8
2018-Feb-10 11:30N 34°36' E 135°25'1 1.8
2018-Feb-10 10:59N 34°35' E 135°26'0 0.0
2018-Feb-10 10:29N 34°35' E 135°26'0 0.0
2018-Feb-10 09:59N 34°35' E 135°26'0 0.0
2018-Feb-10 09:29N 34°35' E 135°26'0 0.0
2018-Feb-10 08:59N 34°35' E 135°26'0 0.0
2018-Feb-10 08:29N 34°35' E 135°26'0 0.0
2018-Feb-10 07:59N 34°35' E 135°26'0 0.0
2018-Feb-10 07:29N 34°35' E 135°26'0 0.0
2018-Feb-10 06:56N 34°35' E 135°26'0 0.0
2018-Feb-10 06:29N 34°35' E 135°26'0 0.0
2018-Feb-10 05:59N 34°35' E 135°26'0 0.0
2018-Feb-10 05:29N 34°35' E 135°26'0 0.0
2018-Feb-10 04:59N 34°35' E 135°26'0 0.0
2018-Feb-10 04:29N 34°35' E 135°26'0 0.0
2018-Feb-10 03:59N 34°35' E 135°26'0 0.0
2018-Feb-10 03:26N 34°35' E 135°26'0 0.0
2018-Feb-10 02:59N 34°35' E 135°26'0 0.0
2018-Feb-10 02:23N 34°35' E 135°26'0 0.0
2018-Feb-10 01:59N 34°35' E 135°26'0 0.0
2018-Feb-10 01:29N 34°35' E 135°26'0 0.0
2018-Feb-10 00:59N 34°35' E 135°26'0 0.0
2018-Feb-10 00:25N 34°35' E 135°26'0 0.0
2018-Feb-09 23:59N 34°35' E 135°26'0 0.0
2018-Feb-09 23:23N 34°35' E 135°26'0 0.0
2018-Feb-09 22:59N 34°35' E 135°26'0 0.0
2018-Feb-09 22:44N 34°35' E 135°26'3 4.0
2018-Feb-09 22:01N 34°36' E 135°23'815.7
2018-Feb-09 21:31N 34°35' E 135°13'816.1
2018-Feb-09 21:01N 34°36' E 135°03'713.7
2018-Feb-09 20:31N 34°36' E 134°55'1616.4
2018-Feb-09 19:30N 34°29' E 134°37'917.2
2018-Feb-09 19:00N 34°26' E 134°27'10212.8
2018-Feb-09 11:00N 34°17' E 132°24'611.6
2018-Feb-09 10:30N 34°21' E 132°29'0 0.0
2018-Feb-09 01:30N 34°21' E 132°29'2 4.7
2018-Feb-09 01:00N 34°19' E 132°29'  

Dump ship's entire track history